Wetterdaten: Woche 29.05.23 - 04.06.23 (KW22)
Datum Zeit Temp. Aussen Temp. o. S. Temp +5cm Feuchte Auss Luftdruck Regen Sonnenschein Regendauer Solar Windben Empfang
29.05.2023 00:00 17,0 C 16,0 C 12,4 C 65 % 1021,2 hPa 0,0 l/m 0,00 h 0,00 h 0 W/m 13,3 km/h (3 Bft) 97,32 %
29.05.2023 01:00 15,7 C 14,7 C 11,3 C 68 % 1021,5 hPa 0,0 l/m 0,00 h 0,00 h 0 W/m 12,8 km/h (3 Bft) 96,18 %
29.05.2023 02:00 14,7 C 13,8 C 10,3 C 71 % 1021,6 hPa 0,0 l/m 0,00 h 0,00 h 0 W/m 10,7 km/h (2 Bft) 98,59 %
29.05.2023 03:00 13,5 C 12,6 C 9,2 C 78 % 1022,0 hPa 0,0 l/m 0,00 h 0,00 h 0 W/m 14,3 km/h (3 Bft) 96,67 %
29.05.2023 04:00 12,1 C 11,3 C 7,9 C 80 % 1022,5 hPa 0,0 l/m 0,00 h 0,00 h 0 W/m 13,7 km/h (3 Bft) 96,38 %
29.05.2023 05:00 11,5 C 10,7 C 7,4 C 79 % 1022,7 hPa 0,0 l/m 0,00 h 0,00 h 9 W/m 11,8 km/h (2 Bft) 96,31 %
29.05.2023 06:00 11,0 C 10,6 C 7,2 C 82 % 1023,0 hPa 0,0 l/m 0,00 h 0,00 h 26 W/m 12,9 km/h (3 Bft) 98,79 %
29.05.2023 07:00 11,4 C 11,1 C 7,5 C 82 % 1023,4 hPa 0,0 l/m 0,07 h 0,00 h 69 W/m 15,3 km/h (3 Bft) 97,19 %
29.05.2023 08:00 13,2 C 16,2 C 9,7 C 77 % 1023,5 hPa 0,0 l/m 0,97 h 0,00 h 336 W/m 15,2 km/h (3 Bft) 96,23 %
29.05.2023 09:00 15,5 C 19,7 C 13,3 C 70 % 1023,7 hPa 0,0 l/m 1,00 h 0,00 h 511 W/m 15,4 km/h (3 Bft) 96,73 %
29.05.2023 10:00 16,6 C 18,9 C 15,2 C 67 % 1024,0 hPa 0,0 l/m 1,00 h 0,00 h 634 W/m 15,6 km/h (3 Bft) 96,52 %
29.05.2023 11:00 17,8 C 20,6 C 15,8 C 65 % 1024,2 hPa 0,0 l/m 1,00 h 0,00 h 706 W/m 16,0 km/h (3 Bft) 97,79 %
29.05.2023 12:00 19,2 C 23,2 C 18,8 C 62 % 1024,1 hPa 0,0 l/m 1,00 h 0,00 h 793 W/m 18,2 km/h (3 Bft) 97,12 %
29.05.2023 13:00 20,5 C 25,4 C 20,5 C 59 % 1023,8 hPa 0,0 l/m 1,00 h 0,00 h 844 W/m 14,9 km/h (3 Bft) 96,01 %
29.05.2023 14:00 21,1 C 25,5 C 17,3 C 58 % 1023,7 hPa 0,0 l/m 1,00 h 0,00 h 786 W/m 18,3 km/h (3 Bft) 97,14 %
29.05.2023 15:00 20,9 C 23,4 C 16,8 C 58 % 1023,7 hPa 0,0 l/m 1,00 h 0,00 h 601 W/m 17,2 km/h (3 Bft) 96,30 %
29.05.2023 16:00 20,4 C 22,3 C 16,5 C 57 % 1023,6 hPa 0,0 l/m 1,00 h 0,00 h 466 W/m 17,3 km/h (3 Bft) 98,40 %
29.05.2023 17:00 20,5 C 23,8 C 16,9 C 54 % 1023,5 hPa 0,0 l/m 1,00 h 0,00 h 497 W/m 17,1 km/h (3 Bft) 95,20 %
29.05.2023 18:00 21,1 C 25,7 C 17,8 C 47 % 1023,4 hPa 0,0 l/m 1,00 h 0,00 h 424 W/m 17,0 km/h (3 Bft) 98,19 %
29.05.2023 19:00 20,1 C 21,3 C 15,7 C 46 % 1023,4 hPa 0,0 l/m 0,80 h 0,00 h 215 W/m 15,6 km/h (3 Bft) 91,32 %
29.05.2023 20:00 18,7 C 17,8 C 14,2 C 48 % 1023,6 hPa 0,0 l/m 0,00 h 0,00 h 33 W/m 14,1 km/h (3 Bft) 94,67 %
29.05.2023 21:00 17,3 C 16,2 C 12,8 C 55 % 1023,9 hPa 0,0 l/m 0,13 h 0,00 h 15 W/m 10,8 km/h (2 Bft) 97,58 %
29.05.2023 22:00 15,8 C 14,7 C 11,3 C 58 % 1024,4 hPa 0,0 l/m 0,00 h 0,00 h 0 W/m 11,3 km/h (2 Bft) 98,51 %
29.05.2023 23:00 14,5 C 13,5 C 10,2 C 63 % 1024,6 hPa 0,0 l/m 0,00 h 0,00 h 0 W/m 11,1 km/h (2 Bft) 96,00 %
30.05.2023 00:00 13,2 C 12,3 C 9,2 C 66 % 1025,1 hPa 0,0 l/m 0,00 h 0,00 h 0 W/m 12,9 km/h (3 Bft) 98,69 %
30.05.2023 01:00 12,2 C 11,3 C 8,0 C 70 % 1025,5 hPa 0,0 l/m 0,00 h 0,00 h 0 W/m 8,3 km/h (2 Bft) 97,74 %
30.05.2023 02:00 11,3 C 10,3 C 7,1 C 73 % 1026,0 hPa 0,0 l/m 0,00 h 0,00 h 0 W/m 7,3 km/h (2 Bft) 96,98 %
30.05.2023 03:00 10,6 C 9,6 C 6,5 C 77 % 1026,1 hPa 0,0 l/m 0,00 h 0,00 h 0 W/m 5,7 km/h (1 Bft) 97,06 %
30.05.2023 04:00 9,8 C 8,9 C 5,8 C 81 % 1026,2 hPa 0,0 l/m 0,00 h 0,00 h 0 W/m 5,9 km/h (2 Bft) 98,14 %
30.05.2023 05:00 9,3 C 8,4 C 5,4 C 85 % 1026,3 hPa 0,0 l/m 0,00 h 0,00 h 11 W/m 9,4 km/h (2 Bft) 97,43 %
30.05.2023 06:00 9,5 C 9,1 C 5,7 C 86 % 1026,4 hPa 0,0 l/m 0,00 h 0,00 h 32 W/m 12,8 km/h (3 Bft) 96,32 %
30.05.2023 07:00 10,2 C 10,0 C 6,4 C 84 % 1026,7 hPa 0,0 l/m 0,07 h 0,00 h 71 W/m 12,3 km/h (3 Bft) 97,82 %
30.05.2023 08:00 11,8 C 15,1 C 8,6 C 78 % 1026,9 hPa 0,0 l/m 1,00 h 0,00 h 348 W/m 16,6 km/h (3 Bft) 97,08 %
30.05.2023 09:00 14,1 C 19,1 C 12,5 C 70 % 1027,1 hPa 0,0 l/m 1,00 h 0,00 h 538 W/m 13,5 km/h (3 Bft) 94,67 %
30.05.2023 10:00 15,3 C 17,8 C 14,7 C 67 % 1027,1 hPa 0,0 l/m 1,00 h 0,00 h 677 W/m 14,4 km/h (3 Bft) 98,01 %
30.05.2023 11:00 16,4 C 20,1 C 15,4 C 63 % 1026,8 hPa 0,0 l/m 1,00 h 0,00 h 813 W/m 15,7 km/h (3 Bft) 96,86 %
30.05.2023 12:00 18,3 C 23,3 C 19,7 C 58 % 1026,5 hPa 0,0 l/m 1,00 h 0,00 h 886 W/m 15,1 km/h (3 Bft) 98,11 %
30.05.2023 13:00 19,9 C 25,9 C 21,5 C 53 % 1026,1 hPa 0,0 l/m 1,00 h 0,00 h 920 W/m 14,7 km/h (3 Bft) 98,43 %
30.05.2023 14:00 20,9 C 27,1 C 16,9 C 53 % 1025,5 hPa 0,0 l/m 1,00 h 0,00 h 897 W/m 14,7 km/h (3 Bft) 96,36 %
30.05.2023 15:00 21,9 C 27,1 C 17,1 C 52 % 1025,1 hPa 0,0 l/m 1,00 h 0,00 h 832 W/m 13,6 km/h (3 Bft) 96,93 %
30.05.2023 16:00 22,5 C 27,0 C 17,9 C 52 % 1024,5 hPa 0,0 l/m 1,00 h 0,00 h 723 W/m 13,8 km/h (3 Bft) 98,43 %
30.05.2023 17:00 22,8 C 27,0 C 19,1 C 52 % 1024,3 hPa 0,0 l/m 1,00 h 0,00 h 579 W/m 15,0 km/h (3 Bft) 97,79 %
30.05.2023 18:00 22,5 C 26,7 C 19,2 C 53 % 1023,9 hPa 0,0 l/m 1,00 h 0,00 h 412 W/m 14,9 km/h (3 Bft) 97,82 %
30.05.2023 19:00 21,3 C 22,4 C 16,8 C 56 % 1024,0 hPa 0,0 l/m 0,80 h 0,00 h 209 W/m 13,5 km/h (3 Bft) 97,29 %
30.05.2023 20:00 19,5 C 18,6 C 15,0 C 64 % 1024,3 hPa 0,0 l/m 0,00 h 0,00 h 32 W/m 12,3 km/h (3 Bft) 98,39 %
30.05.2023 21:00 17,7 C 16,7 C 13,2 C 71 % 1024,7 hPa 0,0 l/m 0,00 h 0,00 h 10 W/m 18,7 km/h (3 Bft) 96,80 %
30.05.2023 22:00 15,9 C 14,9 C 11,5 C 76 % 1025,1 hPa 0,0 l/m 0,00 h 0,00 h 0 W/m 13,4 km/h (3 Bft) 97,24 %
30.05.2023 23:00 14,9 C 14,1 C 10,7 C 79 % 1025,1 hPa 0,0 l/m 0,00 h 0,00 h 0 W/m 12,3 km/h (3 Bft) 96,23 %
31.05.2023 00:00 14,3 C 13,7 C 10,2 C 81 % 1025,1 hPa 0,0 l/m 0,00 h 0,00 h 0 W/m 11,1 km/h (2 Bft) 98,75 %
31.05.2023 01:00 14,0 C 13,1 C 9,8 C 82 % 1025,1 hPa 0,0 l/m 0,00 h 0,00 h 0 W/m 8,1 km/h (2 Bft) 95,82 %
31.05.2023 02:00 13,5 C 12,6 C 9,3 C 84 % 1025,2 hPa 0,0 l/m 0,00 h 0,00 h 0 W/m 8,5 km/h (2 Bft) 98,27 %
31.05.2023 03:00 13,0 C 12,1 C 8,9 C 86 % 1025,2 hPa 0,0 l/m 0,00 h 0,00 h 0 W/m 7,3 km/h (2 Bft) 98,72 %
31.05.2023 04:00 12,5 C 11,7 C 8,3 C 88 % 1025,1 hPa 0,0 l/m 0,00 h 0,00 h 0 W/m 6,2 km/h (2 Bft) 95,13 %
31.05.2023 05:00 12,0 C 11,1 C 7,8 C 89 % 1025,0 hPa 0,0 l/m 0,00 h 0,00 h 9 W/m 6,9 km/h (2 Bft) 98,94 %
31.05.2023 06:00 12,0 C 11,5 C 8,0 C 91 % 1025,0 hPa 0,0 l/m 0,00 h 0,00 h 22 W/m 7,1 km/h (2 Bft) 97,00 %
31.05.2023 07:00 13,0 C 12,8 C 9,2 C 89 % 1025,1 hPa 0,0 l/m 0,07 h 0,00 h 60 W/m 8,0 km/h (2 Bft) 97,17 %
31.05.2023 08:00 16,1 C 21,0 C 12,5 C 80 % 1025,2 hPa 0,0 l/m 1,00 h 0,00 h 395 W/m 10,3 km/h (2 Bft) 97,66 %
31.05.2023 09:00 19,4 C 24,8 C 17,8 C 69 % 1025,1 hPa 0,0 l/m 1,00 h 0,00 h 570 W/m 9,4 km/h (2 Bft) 99,57 %
31.05.2023 10:00 21,3 C 24,2 C 20,3 C 63 % 1024,8 hPa 0,0 l/m 1,00 h 0,00 h 720 W/m 11,7 km/h (2 Bft) 96,15 %
31.05.2023 11:00 23,2 C 27,0 C 21,6 C 55 % 1024,4 hPa 0,0 l/m 1,00 h 0,00 h 841 W/m 12,3 km/h (3 Bft) 97,79 %
31.05.2023 12:00 24,6 C 29,5 C 26,0 C 47 % 1023,9 hPa 0,0 l/m 1,00 h 0,00 h 918 W/m 14,6 km/h (3 Bft) 95,98 %
31.05.2023 13:00 25,3 C 30,8 C 26,9 C 47 % 1023,5 hPa 0,0 l/m 1,02 h 0,00 h 941 W/m 16,3 km/h (3 Bft) 99,32 %
31.05.2023 14:00 26,1 C 32,5 C 21,5 C 45 % 1023,0 hPa 0,0 l/m 1,00 h 0,00 h 925 W/m 15,8 km/h (3 Bft) 97,15 %
31.05.2023 15:00 26,5 C 31,7 C 21,6 C 46 % 1022,5 hPa 0,0 l/m 1,00 h 0,00 h 861 W/m 16,4 km/h (3 Bft) 96,73 %
31.05.2023 16:00 26,6 C 31,2 C 22,1 C 46 % 1022,0 hPa 0,0 l/m 1,00 h 0,00 h 705 W/m 15,2 km/h (3 Bft) 98,08 %
31.05.2023 17:00 26,9 C 31,7 C 23,4 C 46 % 1021,7 hPa 0,0 l/m 1,00 h 0,00 h 606 W/m 14,8 km/h (3 Bft) 97,15 %
31.05.2023 18:00 26,6 C 31,0 C 23,1 C 47 % 1021,2 hPa 0,0 l/m 1,00 h 0,00 h 413 W/m 15,1 km/h (3 Bft) 96,22 %
31.05.2023 19:00 24,7 C 26,0 C 20,0 C 50 % 1021,0 hPa 0,0 l/m 0,80 h 0,00 h 215 W/m 14,7 km/h (3 Bft) 99,07 %
31.05.2023 20:00 22,8 C 22,2 C 18,0 C 55 % 1021,0 hPa 0,0 l/m 0,00 h 0,00 h 51 W/m 9,0 km/h (2 Bft) 96,53 %
31.05.2023 21:00 21,1 C 19,8 C 16,1 C 60 % 1021,0 hPa 0,0 l/m 0,00 h 0,00 h 12 W/m 4,8 km/h (1 Bft) 97,81 %
31.05.2023 22:00 19,6 C 17,9 C 14,3 C 67 % 1021,3 hPa 0,0 l/m 0,00 h 0,00 h 0 W/m 1,2 km/h (1 Bft) 97,94 %
31.05.2023 23:00 18,3 C 16,3 C 12,9 C 73 % 1021,5 hPa 0,0 l/m 0,00 h 0,00 h 0 W/m 1,0 km/h (0 Bft) 96,87 %
01.06.2023 00:00 17,3 C 16,4 C 12,8 C 76 % 1021,7 hPa 0,0 l/m 0,00 h 0,00 h 0 W/m 7,3 km/h (2 Bft) 98,77 %
01.06.2023 01:00 16,5 C 15,6 C 12,1 C 79 % 1021,9 hPa 0,0 l/m 0,00 h 0,00 h 0 W/m 7,4 km/h (2 Bft) 98,31 %
01.06.2023 02:00 15,4 C 14,4 C 11,1 C 82 % 1022,1 hPa 0,0 l/m 0,00 h 0,00 h 0 W/m 9,2 km/h (2 Bft) 95,95 %
01.06.2023 03:00 14,0 C 13,1 C 9,6 C 86 % 1022,1 hPa 0,0 l/m 0,00 h 0,00 h 0 W/m 7,5 km/h (2 Bft) 98,00 %
01.06.2023 04:00 12,8 C 11,9 C 8,5 C 89 % 1022,1 hPa 0,0 l/m 0,00 h 0,00 h 0 W/m 8,4 km/h (2 Bft) 98,22 %
01.06.2023 05:00 11,6 C 10,9 C 7,5 C 91 % 1022,2 hPa 0,0 l/m 0,00 h 0,00 h 7 W/m 9,3 km/h (2 Bft) 97,19 %
01.06.2023 06:00 11,3 C 11,1 C 7,4 C 91 % 1022,6 hPa 0,0 l/m 0,00 h 0,00 h 28 W/m 10,5 km/h (2 Bft) 97,82 %
01.06.2023 07:00 11,4 C 11,4 C 7,8 C 89 % 1022,7 hPa 0,0 l/m 0,00 h 0,00 h 86 W/m 9,1 km/h (2 Bft) 97,46 %
01.06.2023 08:00 11,9 C 13,0 C 8,6 C 86 % 1022,9 hPa 0,0 l/m 0,33 h 0,00 h 210 W/m 10,3 km/h (2 Bft) 97,87 %
01.06.2023 09:00 13,9 C 17,7 C 12,3 C 79 % 1022,9 hPa 0,0 l/m 0,80 h 0,00 h 487 W/m 13,9 km/h (3 Bft) 98,27 %
01.06.2023 10:00 15,6 C 18,2 C 15,3 C 73 % 1022,8 hPa 0,0 l/m 1,00 h 0,00 h 681 W/m 12,9 km/h (3 Bft) 98,03 %
01.06.2023 11:00 17,2 C 20,7 C 16,7 C 69 % 1022,3 hPa 0,0 l/m 1,00 h 0,00 h 811 W/m 13,7 km/h (3 Bft) 95,71 %
01.06.2023 12:00 19,0 C 24,0 C 21,2 C 64 % 1022,0 hPa 0,0 l/m 1,00 h 0,00 h 897 W/m 13,7 km/h (3 Bft) 95,92 %
01.06.2023 13:00 20,4 C 26,2 C 23,7 C 61 % 1021,6 hPa 0,0 l/m 1,00 h 0,00 h 934 W/m 13,7 km/h (3 Bft) 98,65 %
01.06.2023 14:00 21,2 C 26,9 C 17,6 C 59 % 1021,3 hPa 0,0 l/m 1,00 h 0,00 h 914 W/m 14,7 km/h (3 Bft) 97,94 %
01.06.2023 15:00 22,3 C 27,3 C 17,4 C 57 % 1021,1 hPa 0,0 l/m 1,00 h 0,00 h 847 W/m 15,4 km/h (3 Bft) 97,90 %
01.06.2023 16:00 22,1 C 26,8 C 17,5 C 57 % 1020,7 hPa 0,0 l/m 1,00 h 0,00 h 744 W/m 16,1 km/h (3 Bft) 96,24 %
01.06.2023 17:00 22,3 C 26,9 C 18,6 C 57 % 1020,1 hPa 0,0 l/m 1,00 h 0,00 h 607 W/m 16,7 km/h (3 Bft) 99,21 %
01.06.2023 18:00 22,3 C 26,5 C 18,8 C 57 % 1019,7 hPa 0,0 l/m 1,00 h 0,00 h 432 W/m 14,4 km/h (3 Bft) 98,01 %
01.06.2023 19:00 20,1 C 21,8 C 15,8 C 64 % 1019,6 hPa 0,0 l/m 0,83 h 0,00 h 218 W/m 15,6 km/h (3 Bft) 96,38 %
01.06.2023 20:00 17,4 C 16,8 C 13,1 C 72 % 1019,8 hPa 0,0 l/m 0,00 h 0,00 h 38 W/m 16,9 km/h (3 Bft) 98,98 %
01.06.2023 21:00 15,7 C 14,9 C 11,5 C 74 % 1020,1 hPa 0,0 l/m 0,00 h 0,00 h 12 W/m 11,4 km/h (2 Bft) 96,68 %
01.06.2023 22:00 14,4 C 13,5 C 10,2 C 77 % 1020,4 hPa 0,0 l/m 0,00 h 0,00 h 0 W/m 11,5 km/h (2 Bft) 96,00 %
01.06.2023 23:00 13,1 C 12,4 C 9,1 C 79 % 1020,6 hPa 0,0 l/m 0,00 h 0,00 h 0 W/m 11,1 km/h (2 Bft) 98,43 %
02.06.2023 00:00 12,6 C 12,1 C 8,8 C 79 % 1020,9 hPa 0,0 l/m 0,00 h 0,00 h 0 W/m 9,7 km/h (2 Bft) 96,46 %
02.06.2023 01:00 12,7 C 12,2 C 8,7 C 78 % 1021,0 hPa 0,0 l/m 0,00 h 0,00 h 0 W/m 10,7 km/h (2 Bft) 97,50 %
02.06.2023 02:00 12,4 C 11,8 C 8,2 C 76 % 1021,0 hPa 0,0 l/m 0,00 h 0,00 h 0 W/m 10,4 km/h (2 Bft) 97,64 %
02.06.2023 03:00 11,9 C 11,3 C 7,8 C 77 % 1020,9 hPa 0,0 l/m 0,00 h 0,00 h 0 W/m 11,4 km/h (2 Bft) 97,71 %
02.06.2023 04:00 11,5 C 10,9 C 7,6 C 77 % 1021,0 hPa 0,0 l/m 0,00 h 0,00 h 0 W/m 10,6 km/h (2 Bft) 97,33 %
02.06.2023 05:00 11,1 C 10,6 C 7,2 C 76 % 1021,2 hPa 0,0 l/m 0,00 h 0,00 h 7 W/m 10,0 km/h (2 Bft) 96,05 %
02.06.2023 06:00 10,9 C 10,5 C 7,2 C 76 % 1021,5 hPa 0,0 l/m 0,00 h 0,00 h 20 W/m 7,9 km/h (2 Bft) 99,57 %
02.06.2023 07:00 11,2 C 10,8 C 7,2 C 76 % 1021,5 hPa 0,0 l/m 0,00 h 0,00 h 49 W/m 8,9 km/h (2 Bft) 96,27 %
02.06.2023 08:00 11,4 C 11,5 C 7,8 C 75 % 1021,7 hPa 0,0 l/m 0,00 h 0,00 h 107 W/m 9,2 km/h (2 Bft) 97,23 %
02.06.2023 09:00 11,8 C 12,0 C 8,1 C 74 % 1021,9 hPa 0,0 l/m 0,00 h 0,00 h 157 W/m 10,4 km/h (2 Bft) 98,33 %
02.06.2023 10:00 12,5 C 13,3 C 9,1 C 71 % 1022,0 hPa 0,0 l/m 0,00 h 0,00 h 270 W/m 10,8 km/h (2 Bft) 97,34 %
02.06.2023 11:00 13,9 C 15,9 C 11,1 C 68 % 1021,9 hPa 0,0 l/m 0,40 h 0,00 h 474 W/m 12,0 km/h (2 Bft) 95,88 %
02.06.2023 12:00 15,7 C 20,2 C 16,6 C 64 % 1021,6 hPa 0,0 l/m 0,70 h 0,00 h 710 W/m 11,9 km/h (2 Bft) 98,72 %
02.06.2023 13:00 18,3 C 23,5 C 19,4 C 60 % 1021,3 hPa 0,0 l/m 0,93 h 0,00 h 861 W/m 14,5 km/h (3 Bft) 97,37 %
02.06.2023 14:00 19,5 C 25,5 C 15,3 C 60 % 1021,0 hPa 0,0 l/m 0,97 h 0,00 h 976 W/m 16,9 km/h (3 Bft) 99,00 %
02.06.2023 15:00 19,8 C 23,8 C 15,4 C 60 % 1021,0 hPa 0,0 l/m 0,77 h 0,00 h 734 W/m 15,8 km/h (3 Bft) 95,08 %
02.06.2023 16:00 20,1 C 24,4 C 16,1 C 59 % 1020,8 hPa 0,0 l/m 0,93 h 0,00 h 721 W/m 15,2 km/h (3 Bft) 99,02 %
02.06.2023 17:00 20,5 C 24,5 C 17,1 C 59 % 1020,4 hPa 0,0 l/m 0,97 h 0,00 h 590 W/m 16,7 km/h (3 Bft) 97,87 %
02.06.2023 18:00 20,2 C 24,6 C 17,1 C 58 % 1020,2 hPa 0,0 l/m 0,97 h 0,00 h 422 W/m 17,4 km/h (3 Bft) 96,72 %
02.06.2023 19:00 19,4 C 21,1 C 15,1 C 59 % 1020,1 hPa 0,0 l/m 0,62 h 0,00 h 186 W/m 12,9 km/h (3 Bft) 97,59 %
02.06.2023 20:00 18,0 C 17,5 C 13,7 C 62 % 1020,1 hPa 0,0 l/m 0,00 h 0,00 h 37 W/m 8,8 km/h (2 Bft) 97,66 %
02.06.2023 21:00 16,7 C 15,7 C 12,3 C 66 % 1020,2 hPa 0,0 l/m 0,00 h 0,00 h 12 W/m 4,5 km/h (1 Bft) 94,61 %
02.06.2023 22:00 15,4 C 14,0 C 10,8 C 72 % 1020,5 hPa 0,0 l/m 0,00 h 0,00 h 0 W/m 1,3 km/h (1 Bft) 99,09 %
02.06.2023 23:00 14,4 C 13,3 C 10,0 C 75 % 1020,6 hPa 0,0 l/m 0,00 h 0,00 h 0 W/m 2,0 km/h (1 Bft) 96,21 %
03.06.2023 00:00 14,0 C 13,0 C 9,7 C 77 % 1020,7 hPa 0,0 l/m 0,00 h 0,00 h 0 W/m 3,1 km/h (1 Bft) 96,56 %
03.06.2023 01:00 13,3 C 12,3 C 9,0 C 80 % 1020,8 hPa 0,0 l/m 0,00 h 0,00 h 0 W/m 3,8 km/h (1 Bft) 97,78 %
03.06.2023 02:00 12,6 C 11,6 C 8,5 C 83 % 1020,9 hPa 0,0 l/m 0,00 h 0,00 h 0 W/m 3,6 km/h (1 Bft) 97,83 %
03.06.2023 03:00 12,0 C 11,0 C 7,8 C 86 % 1020,7 hPa 0,0 l/m 0,00 h 0,00 h 0 W/m 3,4 km/h (1 Bft) 97,11 %
03.06.2023 04:00 11,7 C 10,8 C 7,8 C 86 % 1020,7 hPa 0,0 l/m 0,00 h 0,00 h 0 W/m 5,3 km/h (1 Bft) 96,64 %
03.06.2023 05:00 11,4 C 10,3 C 7,2 C 87 % 1020,9 hPa 0,0 l/m 0,00 h 0,00 h 9 W/m 3,3 km/h (1 Bft) 98,22 %
03.06.2023 06:00 11,0 C 10,4 C 7,2 C 89 % 1021,1 hPa 0,0 l/m 0,00 h 0,00 h 23 W/m 5,1 km/h (1 Bft) 97,29 %
03.06.2023 07:00 12,0 C 11,9 C 8,3 C 84 % 1021,1 hPa 0,0 l/m 0,17 h 0,00 h 86 W/m 7,5 km/h (2 Bft) 96,56 %
03.06.2023 08:00 15,1 C 19,9 C 11,6 C 68 % 1021,1 hPa 0,0 l/m 1,00 h 0,00 h 397 W/m 11,7 km/h (2 Bft) 99,22 %
03.06.2023 09:00 18,3 C 23,4 C 15,9 C 56 % 1021,2 hPa 0,0 l/m 1,00 h 0,00 h 569 W/m 13,1 km/h (3 Bft) 95,47 %
03.06.2023 10:00 19,5 C 22,2 C 18,3 C 52 % 1021,0 hPa 0,0 l/m 1,00 h 0,00 h 718 W/m 14,4 km/h (3 Bft) 96,44 %
03.06.2023 11:00 20,7 C 24,1 C 18,9 C 48 % 1021,0 hPa 0,0 l/m 1,00 h 0,00 h 835 W/m 15,8 km/h (3 Bft) 98,58 %
03.06.2023 12:00 21,9 C 26,7 C 22,6 C 46 % 1021,0 hPa 0,0 l/m 1,00 h 0,00 h 912 W/m 16,0 km/h (3 Bft) 98,17 %
03.06.2023 13:00 22,7 C 28,2 C 24,6 C 45 % 1020,9 hPa 0,0 l/m 1,00 h 0,00 h 943 W/m 15,1 km/h (3 Bft) 97,55 %
03.06.2023 14:00 23,5 C 29,3 C 19,3 C 44 % 1020,7 hPa 0,0 l/m 1,00 h 0,00 h 926 W/m 13,9 km/h (3 Bft) 97,18 %
03.06.2023 15:00 23,8 C 28,9 C 19,1 C 42 % 1020,4 hPa 0,0 l/m 1,00 h 0,00 h 859 W/m 14,4 km/h (3 Bft) 97,49 %
03.06.2023 16:00 24,1 C 29,0 C 19,8 C 41 % 1020,0 hPa 0,0 l/m 1,00 h 0,00 h 749 W/m 15,1 km/h (3 Bft) 99,22 %
03.06.2023 17:00 23,9 C 28,1 C 20,3 C 40 % 1019,6 hPa 0,0 l/m 1,00 h 0,00 h 606 W/m 17,1 km/h (3 Bft) 95,12 %
03.06.2023 18:00 23,6 C 28,3 C 20,4 C 39 % 1019,5 hPa 0,0 l/m 1,00 h 0,00 h 435 W/m 15,9 km/h (3 Bft) 99,05 %
03.06.2023 19:00 22,0 C 23,2 C 17,6 C 40 % 1019,6 hPa 0,0 l/m 0,87 h 0,00 h 232 W/m 14,7 km/h (3 Bft) 97,80 %
03.06.2023 20:00 20,1 C 19,3 C 15,7 C 44 % 1019,7 hPa 0,0 l/m 0,00 h 0,00 h 35 W/m 11,8 km/h (2 Bft) 96,86 %
03.06.2023 21:00 18,9 C 17,9 C 14,3 C 46 % 1020,0 hPa 0,0 l/m 0,00 h 0,00 h 12 W/m 9,5 km/h (2 Bft) 98,12 %
03.06.2023 22:00 17,5 C 16,5 C 12,9 C 49 % 1020,6 hPa 0,0 l/m 0,00 h 0,00 h 0 W/m 9,6 km/h (2 Bft) 98,44 %
03.06.2023 23:00 16,3 C 15,2 C 11,8 C 50 % 1020,8 hPa 0,0 l/m 0,00 h 0,00 h 0 W/m 5,6 km/h (1 Bft) 95,88 %
04.06.2023 00:00 15,4 C 14,3 C 11,0 C 53 % 1020,9 hPa 0,0 l/m 0,00 h 0,00 h 0 W/m 5,4 km/h (1 Bft) 99,40 %
04.06.2023 01:00 14,5 C 13,3 C 10,1 C 57 % 1021,0 hPa 0,0 l/m 0,00 h 0,00 h 0 W/m 4,1 km/h (1 Bft) 97,22 %
04.06.2023 02:00 13,6 C 12,5 C 9,3 C 60 % 1020,8 hPa 0,0 l/m 0,00 h 0,00 h 0 W/m 3,2 km/h (1 Bft) 96,27 %
04.06.2023 03:00 12,9 C 11,8 C 8,7 C 63 % 1020,8 hPa 0,0 l/m 0,00 h 0,00 h 0 W/m 4,1 km/h (1 Bft) 98,32 %
04.06.2023 04:00 12,0 C 10,8 C 7,7 C 70 % 1020,9 hPa 0,0 l/m 0,00 h 0,00 h 0 W/m 1,8 km/h (1 Bft) 97,76 %
04.06.2023 05:00 11,3 C 10,1 C 7,2 C 75 % 1021,0 hPa 0,0 l/m 0,00 h 0,00 h 8 W/m 1,1 km/h (0 Bft) 97,73 %
04.06.2023 06:00 11,1 C 10,7 C 7,4 C 79 % 1021,1 hPa 0,0 l/m 0,00 h 0,00 h 22 W/m 1,8 km/h (1 Bft) 94,02 %
04.06.2023 07:00 12,2 C 12,2 C 8,7 C 76 % 1021,2 hPa 0,0 l/m 0,23 h 0,00 h 93 W/m 6,3 km/h (2 Bft) 97,58 %
04.06.2023 08:00 15,9 C 20,3 C 12,5 C 64 % 1021,4 hPa 0,0 l/m 1,00 h 0,00 h 400 W/m 8,6 km/h (2 Bft) 96,51 %
04.06.2023 09:00 19,6 C 24,8 C 17,5 C 52 % 1021,6 hPa 0,0 l/m 1,00 h 0,00 h 573 W/m 10,1 km/h (2 Bft) 94,63 %
04.06.2023 10:00 21,5 C 24,4 C 20,4 C 48 % 1021,7 hPa 0,0 l/m 1,00 h 0,00 h 723 W/m 10,1 km/h (2 Bft) 99,26 %
04.06.2023 11:00 22,6 C 25,9 C 21,2 C 44 % 1021,7 hPa 0,0 l/m 1,00 h 0,00 h 837 W/m 12,6 km/h (3 Bft) 97,22 %
04.06.2023 12:00 23,8 C 28,3 C 25,2 C 42 % 1021,7 hPa 0,0 l/m 1,00 h 0,00 h 910 W/m 13,0 km/h (3 Bft) 98,37 %
04.06.2023 13:00 24,7 C 30,7 C 26,6 C 39 % 1021,5 hPa 0,0 l/m 1,00 h 0,00 h 933 W/m 11,2 km/h (2 Bft) 95,67 %
04.06.2023 14:00 25,4 C 31,5 C 21,0 C 36 % 1021,2 hPa 0,0 l/m 1,00 h 0,00 h 915 W/m 12,5 km/h (3 Bft) 97,94 %
04.06.2023 15:00 25,9 C 31,3 C 20,8 C 35 % 1021,0 hPa 0,0 l/m 1,00 h 0,00 h 850 W/m 12,7 km/h (3 Bft) 98,79 %
04.06.2023 16:00 25,8 C 30,2 C 21,0 C 35 % 1020,6 hPa 0,0 l/m 1,00 h 0,00 h 735 W/m 11,6 km/h (2 Bft) 95,99 %
04.06.2023 17:00 25,9 C 30,2 C 22,0 C 35 % 1020,3 hPa 0,0 l/m 1,00 h 0,00 h 586 W/m 12,5 km/h (3 Bft) 97,69 %
04.06.2023 18:00 25,5 C 29,9 C 21,9 C 36 % 1020,0 hPa 0,0 l/m 1,00 h 0,00 h 421 W/m 13,3 km/h (3 Bft) 99,20 %
04.06.2023 19:00 24,1 C 25,5 C 19,0 C 40 % 1019,8 hPa 0,0 l/m 0,90 h 0,00 h 233 W/m 11,5 km/h (2 Bft) 96,14 %
04.06.2023 20:00 22,1 C 21,4 C 17,3 C 45 % 1020,0 hPa 0,0 l/m 0,00 h 0,00 h 40 W/m 7,9 km/h (2 Bft) 97,79 %
04.06.2023 21:00 20,6 C 19,2 C 15,6 C 51 % 1020,3 hPa 0,0 l/m 0,00 h 0,00 h 13 W/m 3,7 km/h (1 Bft) 97,22 %
04.06.2023 22:00 18,9 C 17,2 C 13,6 C 57 % 1020,7 hPa 0,0 l/m 0,00 h 0,00 h 0 W/m 1,5 km/h (1 Bft) 97,82 %
04.06.2023 23:00 17,4 C 15,7 C 12,3 C 63 % 1021,0 hPa 0,0 l/m 0,00 h 0,00 h 0 W/m 0,3 km/h (0 Bft) 97,80 %
Min-Datum _ 30.05.23 30.05.23 30.05.23 04.06.23 01.06.23 - - - - 30.05.23 04.06.23
_ Min-Zeit 05:40 04:58 05:28 15:44 19:06 - - - - 20:18 06:20
Minimum _ 9,2 C 8,3 C 5,0 C 33 % 1019,5 hPa - - - - 0,0 km/h (0 Bft) 48,15 %
Max-Datum _ 31.05.23 31.05.23 04.06.23 01.06.23 30.05.23 29.05.23 31.05.23 29.05.23 02.06.23 30.05.23 29.05.23
_ Max-Zeit 17:14 14:12 13:22 05:50 09:38 00:00 13:06 00:00 14:04 21:32 00:12
Maximum _ 27,1 C 33,3 C 28,9 C 92 % 1027,2 hPa 0,0 l/m 0,08 h 0,00 h 1107 W/m 38,6 km/h
O-SO (5 Bft)
100,00 %
Durchschnitt _ 17,3 C 18,9 C 13,9 C 65 % 1022,3 hPa #0,0 l/m #78:06 h #0 min. 455 W/m 11,2 km/h (2 Bft) 97,33 %
© 2023 W. Hausmann